Time;durP1;ratioP1;P1;durP2;ratioP2;P2;SDS_P1;SDS_P2;PMS_P1;PMS_P2;Temp;Humidity;BMP_temperature;BMP_pressure;BME280_temperature;BME280_humidity;BME280_pressure;Samples;Min_cycle;Max_cycle;Signal;HPM_P1;HPM_P2
2022/07/26 00:05:26;;;;;;;3.55;0.98;;;19.30;99.90;;;;;;6340384;22;20440;-93
2022/07/26 00:08:10;;;;;;;2.08;0.70;;;19.30;99.90;;;;;;6312708;22;20015;-93
2022/07/26 00:10:44;;;;;;;3.78;0.98;;;19.30;99.90;;;;;;6287362;22;20015;-92
2022/07/26 00:13:10;;;;;;;4.50;0.82;;;19.30;99.90;;;;;;6287534;22;20022;-92
2022/07/26 00:15:37;;;;;;;1.77;0.60;;;19.30;99.90;;;;;;6287327;22;20452;-92
2022/07/26 00:18:26;;;;;;;3.85;0.70;;;19.30;99.90;;;;;;6287329;22;20015;-93
2022/07/26 00:20:53;;;;;;;4.00;0.82;;;19.30;99.90;;;;;;6286901;22;20018;-95
2022/07/26 00:25:54;;;;;;;3.50;0.90;;;19.30;99.90;;;;;;6340286;22;20019;-90
2022/07/26 00:28:25;;;;;;;4.70;1.00;;;19.30;99.90;;;;;;6287315;22;20347;-92
2022/07/26 00:37:27;;;;;;;;;;;;;;;;;;;;;
2022/07/26 00:39:54;;;;;;;3.42;0.93;;;19.30;99.90;;;;;;6275096;22;20043;-93
2022/07/26 00:44:55;;;;;;;3.28;0.93;;;19.30;99.90;;;;;;6340190;22;20081;-93
2022/07/26 00:47:21;;;;;;;2.05;1.00;;;19.20;99.90;;;;;;6287357;22;20443;-93
2022/07/26 00:50:03;;;;;;;2.33;0.90;;;19.20;99.90;;;;;;6287054;22;20011;-94
2022/07/26 00:52:29;;;;;;;3.63;1.00;;;19.20;99.90;;;;;;6287076;22;20015;-93
2022/07/26 00:54:55;;;;;;;1.42;0.60;;;19.20;99.90;;;;;;6286899;22;20095;-94
2022/07/26 00:57:22;;;;;;;1.52;0.60;;;19.20;99.90;;;;;;6287148;22;20026;-94
2022/07/26 00:59:48;;;;;;;3.00;0.93;;;19.10;99.90;;;;;;6287184;22;20049;-93
2022/07/26 01:02:27;;;;;;;2.55;0.70;;;19.10;99.90;;;;;;6287003;22;20026;-94
2022/07/26 01:05:29;;;;;;;1.75;0.82;;;19.10;99.90;;;;;;6286953;22;20148;-93
2022/07/26 01:08:04;;;;;;;2.88;0.90;;;19.00;99.90;;;;;;6279806;22;20026;-94
2022/07/26 01:15:48;;;;;;;1.90;0.70;;;19.00;99.90;;;;;;6339794;22;20046;-93
2022/07/26 01:18:17;;;;;;;1.48;0.60;;;18.90;99.90;;;;;;6286898;22;20480;-93
2022/07/26 01:23:19;;;;;;;2.80;0.80;;;18.90;99.90;;;;;;6339364;22;20027;-92
2022/07/26 01:25:45;;;;;;;3.55;1.08;;;18.90;99.90;;;;;;6286072;22;20390;-92
2022/07/26 01:28:54;;;;;;;2.35;1.00;;;18.90;99.90;;;;;;6285783;22;20022;-94
2022/07/26 01:31:23;;;;;;;2.97;0.98;;;18.90;99.90;;;;;;6285752;22;20466;-92
2022/07/26 02:10:59;;;;;;;3.23;0.70;;;18.90;99.90;;;;;;5575491;22;16388072;-91
2022/07/26 02:21:31;;;;;;;2.78;0.80;;;18.80;99.90;;;;;;6276890;22;20024;-92
2022/07/26 02:23:57;;;;;;;2.88;1.05;;;18.80;99.90;;;;;;6225015;22;20019;-91
2022/07/26 02:26:28;;;;;;;3.33;0.95;;;18.80;99.90;;;;;;6225816;22;20016;-93
2022/07/26 02:39:15;;;;;;;2.20;0.60;;;18.60;99.90;;;;;;6283079;22;20030;-95
2022/07/26 02:44:22;;;;;;;2.65;0.82;;;18.50;99.90;;;;;;6339158;22;20024;-92
2022/07/26 04:41:19;;;;;;;2.45;0.20;;;17.50;99.90;;;;;;6343035;22;20097;-95
2022/07/26 04:43:57;;;;;;;0.60;0.30;;;17.50;99.90;;;;;;6261361;22;20030;-92
2022/07/26 05:05:36;;;;;;;1.45;0.10;;;17.40;99.90;;;;;;6284691;22;20026;-91
2022/07/26 05:08:02;;;;;;;1.67;0.20;;;17.50;99.90;;;;;;6257397;22;20019;-91
2022/07/26 05:31:16;;;;;;;1.35;0.20;;;17.50;99.90;;;;;;6310564;22;20042;-93
2022/07/26 05:33:42;;;;;;;1.08;0.17;;;17.50;99.90;;;;;;6260048;22;20071;-91
2022/07/26 05:36:08;;;;;;;0.30;0.20;;;17.40;99.90;;;;;;6261509;22;20128;-91
2022/07/26 05:38:43;;;;;;;1.45;0.20;;;17.30;99.90;;;;;;6259195;22;20015;-91
2022/07/26 05:41:08;;;;;;;1.08;0.20;;;17.30;99.90;;;;;;6259610;22;20505;-92
2022/07/26 05:43:34;;;;;;;0.47;0.20;;;17.30;99.90;;;;;;6259569;22;20019;-95
2022/07/26 05:46:00;;;;;;;0.60;0.10;;;17.30;99.90;;;;;;6257557;22;20015;-95
2022/07/26 05:48:25;;;;;;;1.15;0.30;;;17.30;99.90;;;;;;6260127;22;20023;-93
2022/07/26 05:50:51;;;;;;;1.65;0.28;;;17.30;99.90;;;;;;6261959;22;20019;-93
2022/07/26 05:53:17;;;;;;;1.48;0.30;;;17.30;99.90;;;;;;6258262;22;20008;-93
2022/07/26 05:55:42;;;;;;;0.60;0.20;;;17.30;99.90;;;;;;6257289;22;20049;-94
2022/07/26 06:31:38;;;;;;;0.90;0.20;;;17.20;99.90;;;;;;6291183;22;20023;-94
2022/07/26 06:34:04;;;;;;;1.23;0.25;;;17.20;99.90;;;;;;6259678;22;20106;-96
2022/07/26 06:57:37;;;;;;;1.45;0.20;;;17.40;99.90;;;;;;6311609;22;20019;-94
2022/07/26 07:13:00;;;;;;;2.95;0.20;;;17.60;99.90;;;;;;6314303;22;20621;-94
2022/07/26 07:32:04;;;;;;;1.17;0.25;;;17.80;99.90;;;;;;6284714;22;20030;-92
2022/07/26 07:34:30;;;;;;;0.90;0.22;;;17.80;99.90;;;;;;6257215;22;20019;-92
2022/07/26 07:36:56;;;;;;;3.03;0.20;;;17.80;99.90;;;;;;6257252;22;20073;-93
2022/07/26 07:47:33;;;;;;;2.40;0.28;;;17.60;99.90;;;;;;6332003;22;20045;-92
2022/07/26 07:49:59;;;;;;;0.55;0.30;;;17.60;99.90;;;;;;6266551;22;20054;-93
2022/07/26 07:52:53;;;;;;;0.95;0.20;;;17.60;99.90;;;;;;6257529;22;20026;-94
2022/07/26 07:55:19;;;;;;;1.00;0.20;;;17.60;99.90;;;;;;6257183;22;20011;-93
2022/07/26 07:57:44;;;;;;;1.40;0.22;;;17.60;99.90;;;;;;6257171;22;20121;-95
2022/07/26 08:00:13;;;;;;;0.93;0.10;;;17.60;99.90;;;;;;6257565;22;20015;-90
2022/07/26 08:25:58;;;;;;;0.80;0.22;;;17.90;99.90;;;;;;6279397;22;20046;-94
2022/07/26 08:28:54;;;;;;;0.55;0.20;;;18.00;99.90;;;;;;6229824;22;20455;-95
2022/07/26 10:26:36;;;;;;;3.15;1.13;;;18.20;99.90;;;;;;6306801;22;20027;-92
2022/07/26 10:29:25;;;;;;;1.92;0.50;;;18.20;99.90;;;;;;6256500;22;20016;-88
2022/07/26 10:31:59;;;;;;;3.42;0.40;;;18.40;99.90;;;;;;6255620;22;20015;-92
2022/07/26 10:34:30;;;;;;;3.53;0.65;;;18.50;99.90;;;;;;6255419;22;20011;-93
2022/07/26 10:48:21;;;;;;;2.20;0.32;;;18.50;99.90;;;;;;6339249;22;20019;-92
2022/07/26 10:50:52;;;;;;;2.53;0.50;;;18.60;99.90;;;;;;6286283;22;20023;-91
2022/07/26 10:53:23;;;;;;;1.48;0.35;;;18.60;99.90;;;;;;6286196;22;20014;-93
2022/07/26 10:56:11;;;;;;;3.08;0.45;;;18.70;99.90;;;;;;6285869;22;20027;-92
2022/07/26 11:00:01;;;;;;;3.42;0.40;;;18.80;99.90;;;;;;6286037;22;20057;-94
2022/07/26 11:02:21;;;;;;;1.17;0.40;;;18.90;99.90;;;;;;6191345;22;20513;-92
2022/07/26 11:04:58;;;;;;;;;;;;;;;;;;;;;
2022/07/26 11:08:30;;;;;;;1.08;0.30;;;18.90;99.80;;;;;;6322627;22;20033;-94
2022/07/26 11:10:56;;;;;;;2.00;0.50;;;19.00;99.20;;;;;;6285943;22;20029;-95
2022/07/26 11:26:22;;;;;;;2.85;0.57;;;19.50;97.90;;;;;;6338406;22;20029;-91
2022/07/26 11:29:14;;;;;;;2.83;0.40;;;19.60;97.70;;;;;;6285300;22;20101;-90
2022/07/26 11:31:45;;;;;;;1.20;0.20;;;19.60;96.60;;;;;;6284915;22;20019;-90
2022/07/26 11:34:36;;;;;;;0.60;0.10;;;19.80;97.50;;;;;;6285317;22;20010;-91
2022/07/26 11:45:32;;;;;;;2.35;0.17;;;19.90;96.30;;;;;;6336742;22;20097;-87
2022/07/26 11:47:58;;;;;;;1.38;0.20;;;19.80;96.50;;;;;;6286866;22;20369;-88
2022/07/26 11:50:23;;;;;;;0.80;0.15;;;19.70;95.40;;;;;;6287585;22;20011;-90
2022/07/26 11:52:50;;;;;;;1.13;0.25;;;19.70;95.80;;;;;;6287220;22;20347;-91
2022/07/26 11:55:25;;;;;;;3.58;0.20;;;19.60;95.60;;;;;;6287682;22;20064;-90
2022/07/26 11:57:51;;;;;;;4.47;0.30;;;19.60;95.50;;;;;;6287658;22;20148;-90
2022/07/26 12:00:35;;;;;;;1.30;0.30;;;19.60;95.40;;;;;;6287316;22;20452;-89
2022/07/26 12:03:00;;;;;;;0.95;0.25;;;19.50;95.70;;;;;;6287130;22;20019;-90
2022/07/26 12:05:32;;;;;;;2.08;0.20;;;19.50;95.90;;;;;;6287742;22;20033;-91
2022/07/26 12:10:33;;;;;;;1.40;0.30;;;19.50;95.60;;;;;;6280145;22;20027;-95
2022/07/26 12:13:09;;;;;;;1.20;0.40;;;19.50;96.00;;;;;;6229221;22;20035;-95
2022/07/26 12:15:50;;;;;;;0.68;0.30;;;19.40;96.20;;;;;;6227043;22;20024;-96
2022/07/26 12:18:27;;;;;;;1.17;0.20;;;19.40;96.60;;;;;;6227348;22;20318;-95
2022/07/26 12:21:10;;;;;;;;;;;19.50;96.60;;;;;;6227297;22;20019;-94
2022/07/26 12:23:56;;;;;;;1.08;0.20;;;19.40;96.60;;;;;;6226365;22;20214;-96
2022/07/26 12:26:35;;;;;;;2.83;0.22;;;19.40;96.60;;;;;;6226614;22;20325;-94
2022/07/26 12:32:07;;;;;;;1.52;0.28;;;19.50;96.80;;;;;;6250579;22;20395;-95
2022/07/26 12:34:35;;;;;;;1.35;0.25;;;19.50;96.30;;;;;;6250878;22;20016;-94
2022/07/26 12:38:00;;;;;;;;;;;;;;;;;;;;;
2022/07/26 12:40:28;;;;;;;0.57;0.20;;;19.30;96.20;;;;;;6244422;22;20492;-95
2022/07/26 12:42:59;;;;;;;1.13;0.20;;;19.20;96.60;;;;;;6251508;22;20051;-96
2022/07/26 12:45:37;;;;;;;2.35;0.90;;;19.20;96.60;;;;;;6226005;22;20015;-96
2022/07/26 12:48:09;;;;;;;1.00;0.15;;;19.20;96.50;;;;;;6251081;22;20016;-95
2022/07/26 12:50:35;;;;;;;0.52;0.20;;;19.20;96.30;;;;;;6251161;22;20020;-94
2022/07/26 12:53:06;;;;;;;1.98;0.45;;;19.10;96.20;;;;;;6254410;22;20315;-95
2022/07/26 12:55:33;;;;;;;2.38;0.38;;;19.10;96.00;;;;;;6226661;22;20070;-93
2022/07/26 12:58:25;;;;;;;1.40;0.30;;;19.10;96.10;;;;;;6251384;22;20015;-94
2022/07/26 13:01:17;;;;;;;1.67;0.30;;;19.20;96.00;;;;;;6253417;22;20020;-96
2022/07/26 13:03:43;;;;;;;1.55;0.25;;;19.20;96.10;;;;;;6226615;22;20008;-96
2022/07/26 13:06:14;;;;;;;1.08;0.20;;;19.20;95.50;;;;;;6227015;22;20084;-95
2022/07/26 13:08:45;;;;;;;0.60;0.10;;;19.20;95.70;;;;;;6227955;22;20011;-95
2022/07/26 13:11:11;;;;;;;3.65;0.40;;;19.20;96.00;;;;;;6225476;22;20103;-96
2022/07/26 13:13:37;;;;;;;3.53;0.70;;;19.20;95.90;;;;;;6226082;22;20457;-92
2022/07/26 13:16:02;;;;;;;2.10;0.40;;;19.20;95.80;;;;;;6250418;22;20018;-94
2022/07/26 13:18:31;;;;;;;0.55;0.30;;;19.20;95.30;;;;;;6225707;22;20073;-96
2022/07/26 13:21:00;;;;;;;1.65;0.30;;;19.10;95.50;;;;;;6251060;22;20445;-93
2022/07/26 13:23:25;;;;;;;0.50;0.15;;;19.10;95.70;;;;;;6225317;22;20072;-91
2022/07/26 13:25:51;;;;;;;0.63;0.20;;;19.10;95.50;;;;;;6250882;22;20016;-94
2022/07/26 13:30:52;;;;;;;2.13;0.30;;;19.00;95.20;;;;;;6306803;22;20023;-96
2022/07/26 13:33:21;;;;;;;1.65;0.35;;;19.00;95.40;;;;;;6255908;22;20091;-92
2022/07/26 13:35:47;;;;;;;4.03;0.40;;;19.10;95.60;;;;;;6256463;22;20015;-96
2022/07/26 13:38:13;;;;;;;2.63;0.20;;;19.20;95.80;;;;;;6258844;22;20018;-93
2022/07/26 13:40:39;;;;;;;0.82;0.30;;;19.20;95.30;;;;;;6254908;22;20502;-92
2022/07/26 13:43:07;;;;;;;1.25;0.35;;;19.30;95.30;;;;;;6255448;22;20023;-96
2022/07/26 13:45:36;;;;;;;0.90;0.30;;;19.30;95.00;;;;;;6256246;22;20461;-94
2022/07/26 13:48:01;;;;;;;1.23;0.22;;;19.50;95.10;;;;;;6256040;22;20448;-93
2022/07/26 13:50:47;;;;;;;0.50;0.20;;;19.60;95.20;;;;;;6280958;22;20007;-94
2022/07/26 13:53:13;;;;;;;1.63;0.20;;;19.60;94.40;;;;;;6255254;22;20023;-92
2022/07/26 13:58:14;;;;;;;1.25;0.30;;;19.60;94.50;;;;;;6339364;22;20026;-96
2022/07/26 14:00:41;;;;;;;1.25;0.30;;;19.60;94.40;;;;;;6286313;22;20023;-92
2022/07/26 14:03:07;;;;;;;0.63;0.20;;;19.60;94.40;;;;;;6312260;22;20017;-94
2022/07/26 14:05:37;;;;;;;0.57;0.30;;;19.50;94.10;;;;;;6286414;22;20090;-95
2022/07/26 14:08:12;;;;;;;2.22;0.40;;;19.50;94.20;;;;;;6286705;22;20343;-93
2022/07/26 14:10:39;;;;;;;1.10;0.30;;;19.60;94.10;;;;;;6312457;22;20035;-94
2022/07/26 14:13:15;;;;;;;1.92;0.30;;;19.70;94.40;;;;;;6286238;22;20019;-95
2022/07/26 14:15:41;;;;;;;0.90;0.30;;;19.90;94.30;;;;;;6286354;22;20072;-94
2022/07/26 14:23:17;;;;;;;1.15;0.30;;;20.30;92.70;;;;;;6280917;22;20392;-94
2022/07/26 14:25:43;;;;;;;1.65;0.50;;;20.30;92.00;;;;;;6255667;22;20019;-95
2022/07/26 14:28:09;;;;;;;1.20;0.20;;;20.20;90.90;;;;;;6256241;22;20011;-96
2022/07/26 14:30:42;;;;;;;1.75;0.30;;;20.10;91.60;;;;;;6255980;22;20015;-95
2022/07/26 14:33:08;;;;;;;1.20;0.20;;;20.10;92.10;;;;;;6256621;22;20050;-96
2022/07/26 14:35:34;;;;;;;0.45;0.10;;;20.20;91.70;;;;;;6256991;22;20065;-95
2022/07/26 14:37:59;;;;;;;1.73;0.20;;;20.30;92.00;;;;;;6255552;22;20015;-93
2022/07/26 14:40:25;;;;;;;0.68;0.10;;;20.20;91.50;;;;;;6281127;22;20058;-93
2022/07/26 14:42:51;;;;;;;2.30;0.30;;;20.10;91.10;;;;;;6255363;22;20015;-96
2022/07/26 14:45:19;;;;;;;0.98;0.20;;;20.00;91.30;;;;;;6254930;22;20022;-94
2022/07/26 14:47:44;;;;;;;1.45;0.22;;;19.90;91.60;;;;;;6255153;22;20011;-93
2022/07/26 14:50:14;;;;;;;0.57;0.10;;;19.90;91.80;;;;;;6255273;22;20054;-94
2022/07/26 14:52:42;;;;;;;0.80;0.20;;;19.90;91.80;;;;;;6255028;22;20387;-92
2022/07/26 14:55:08;;;;;;;0.75;0.20;;;19.80;91.80;;;;;;6255101;22;20020;-95
2022/07/26 15:00:33;;;;;;;1.90;0.40;;;19.70;91.10;;;;;;6329636;22;20312;-93
2022/07/26 15:02:59;;;;;;;;;;;19.50;91.90;;;;;;6286731;22;20061;-95
2022/07/26 15:05:26;;;;;;;2.22;0.20;;;19.50;92.10;;;;;;6286361;22;19914;-96
2022/07/26 15:07:53;;;;;;;1.60;0.20;;;19.40;92.50;;;;;;6286297;22;20007;-95
2022/07/26 15:10:27;;;;;;;0.82;0.20;;;19.20;93.00;;;;;;6286199;22;20022;-94
2022/07/26 15:12:55;;;;;;;1.10;0.25;;;19.20;93.10;;;;;;6285848;22;20011;-94
2022/07/26 15:15:20;;;;;;;1.45;0.30;;;19.00;93.40;;;;;;6285548;22;20011;-94
2022/07/26 15:17:46;;;;;;;0.45;0.10;;;19.00;93.60;;;;;;6286853;22;20325;-94
2022/07/26 15:20:12;;;;;;;1.20;0.20;;;18.90;93.60;;;;;;6286360;22;20011;-93
2022/07/26 15:22:38;;;;;;;1.00;0.30;;;18.90;93.50;;;;;;6287622;22;20037;-94
2022/07/26 15:25:05;;;;;;;1.50;0.20;;;18.80;93.40;;;;;;6287626;22;20019;-94
2022/07/26 15:27:31;;;;;;;0.85;0.10;;;18.90;93.60;;;;;;6287672;22;20015;-94
2022/07/26 15:32:32;;;;;;;1.23;0.40;;;18.90;93.90;;;;;;6340623;22;20018;-93
2022/07/26 15:37:50;;;;;;;0.57;0.17;;;19.00;93.20;;;;;;6311234;22;20294;-93
2022/07/26 15:51:14;;;;;;;1.52;0.22;;;19.00;93.90;;;;;;6308393;22;20054;-92
2022/07/26 15:53:43;;;;;;;0.20;0.10;;;19.00;94.00;;;;;;6256660;22;20054;-94
2022/07/26 15:56:09;;;;;;;0.30;0.20;;;18.90;94.10;;;;;;6256176;22;20321;-93
2022/07/26 15:58:44;;;;;;;1.08;0.20;;;18.90;94.20;;;;;;6256528;22;20078;-94
2022/07/26 16:14:07;;;;;;;0.95;0.10;;;18.50;95.30;;;;;;6308888;22;20023;-92
2022/07/26 16:16:32;;;;;;;1.55;0.13;;;18.40;95.50;;;;;;6256560;22;20029;-91
2022/07/26 16:21:34;;;;;;;0.98;0.30;;;18.40;95.60;;;;;;6311279;22;20031;-92
2022/07/26 16:32:44;;;;;;;0.32;0.20;;;18.50;95.20;;;;;;6282134;22;20022;-93
2022/07/26 16:35:09;;;;;;;0.20;0.10;;;18.60;95.10;;;;;;6256322;22;20015;-94
2022/07/26 16:37:38;;;;;;;0.55;0.10;;;18.50;95.00;;;;;;6256079;22;20019;-92
2022/07/26 16:40:07;;;;;;;0.70;0.20;;;18.50;95.10;;;;;;6256432;22;20015;-93
2022/07/26 16:42:33;;;;;;;0.30;0.05;;;18.50;95.20;;;;;;6256455;22;20022;-93
2022/07/26 16:44:58;;;;;;;0.40;0.20;;;18.50;95.10;;;;;;6257055;22;20011;-92
2022/07/26 16:47:24;;;;;;;1.30;0.20;;;18.50;95.00;;;;;;6256546;22;20018;-93
2022/07/26 16:49:50;;;;;;;0.55;0.30;;;18.40;95.10;;;;;;6255459;22;20023;-95
2022/07/26 16:54:51;;;;;;;0.45;0.13;;;18.40;95.10;;;;;;6309369;22;20341;-93
2022/07/26 17:13:52;;;;;;;0.60;0.10;;;18.10;95.20;;;;;;6334387;22;20031;-92
2022/07/26 17:16:18;;;;;;;0.50;0.17;;;18.10;95.40;;;;;;6286904;22;20025;-93
2022/07/26 17:18:43;;;;;;;1.15;0.20;;;18.10;95.50;;;;;;6286497;22;20086;-95
2022/07/26 17:21:09;;;;;;;0.20;0.10;;;18.00;95.60;;;;;;6287150;22;20411;-93
2022/07/26 17:23:37;;;;;;;0.40;0.20;;;18.10;95.70;;;;;;6312648;22;20011;-92
2022/07/26 17:32:00;;;;;;;1.27;0.22;;;17.90;96.40;;;;;;6315115;22;20027;-92
2022/07/26 17:35:01;;;;;;;1.05;0.30;;;17.80;96.80;;;;;;6265574;22;20066;-93
2022/07/26 17:37:27;;;;;;;0.57;0.10;;;17.80;97.20;;;;;;6258043;22;20024;-93
2022/07/26 17:39:56;;;;;;;0.25;0.10;;;17.80;97.20;;;;;;6255464;22;20007;-93
2022/07/26 17:42:22;;;;;;;1.35;0.40;;;17.80;97.70;;;;;;6255536;22;20068;-94
2022/07/26 17:50:00;;;;;;;2.08;0.30;;;17.70;97.90;;;;;;6277466;22;20044;-92
2022/07/26 17:52:27;;;;;;;0.43;0.43;;;17.70;98.10;;;;;;6250383;22;20016;-92
2022/07/26 17:54:54;;;;;;;;;;;17.60;98.00;;;;;;6251008;22;20012;-93
2022/07/26 17:57:20;;;;;;;0.82;0.13;;;17.60;98.50;;;;;;6255455;22;19915;-92
2022/07/26 18:03:23;;;;;;;1.52;0.20;;;17.50;98.60;;;;;;6222038;22;20444;-92
2022/07/26 18:05:50;;;;;;;1.77;0.40;;;17.50;98.80;;;;;;6255665;22;20089;-92
2022/07/26 18:08:16;;;;;;;1.05;0.30;;;17.50;98.90;;;;;;6255125;22;20047;-92
2022/07/26 18:10:42;;;;;;;0.98;0.25;;;17.50;99.00;;;;;;6255178;22;20015;-93
2022/07/26 18:13:45;;;;;;;1.45;0.40;;;17.50;99.10;;;;;;6255179;22;20015;-93
2022/07/26 18:16:11;;;;;;;2.28;0.40;;;17.50;99.30;;;;;;6255645;22;20015;-93
2022/07/26 18:18:37;;;;;;;0.82;0.20;;;17.40;99.40;;;;;;6255435;22;20050;-92
2022/07/26 18:36:35;;;;;;;1.02;0.30;;;17.40;99.60;;;;;;6307766;22;20027;-93
2022/07/26 18:39:02;;;;;;;1.35;0.30;;;17.40;99.80;;;;;;6255404;22;20019;-92
2022/07/26 18:44:06;;;;;;;1.20;0.30;;;17.40;99.90;;;;;;6277364;22;20019;-93
2022/07/26 18:46:32;;;;;;;1.45;0.20;;;17.40;99.90;;;;;;6224911;22;20024;-92
2022/07/26 18:48:57;;;;;;;0.95;0.30;;;17.30;99.90;;;;;;6224941;22;20111;-93
2022/07/26 18:59:09;;;;;;;0.90;0.30;;;17.20;99.90;;;;;;6311950;22;20445;-93
2022/07/26 19:07:44;;;;;;;1.50;0.25;;;17.20;99.90;;;;;;6312092;22;20345;-93
2022/07/26 19:10:10;;;;;;;0.50;0.25;;;17.10;99.90;;;;;;6259812;22;20026;-93
2022/07/26 19:16:45;;;;;;;0.77;0.20;;;17.20;99.90;;;;;;6318477;22;19915;-93
2022/07/26 19:37:22;;;;;;;0.77;0.20;;;17.00;99.90;;;;;;6311456;22;20085;-92
2022/07/26 19:40:29;;;;;;;1.33;0.30;;;17.00;99.90;;;;;;6257838;22;20440;-92
2022/07/26 19:45:39;;;;;;;1.83;0.40;;;17.00;99.90;;;;;;6279863;22;20039;-93
2022/07/26 19:49:18;;;;;;;0.63;0.20;;;17.00;99.90;;;;;;6228992;22;20022;-92
2022/07/26 19:51:49;;;;;;;0.98;0.22;;;17.00;99.90;;;;;;6134727;23;20044;-92
2022/07/26 19:54:15;;;;;;;0.80;0.28;;;16.90;99.90;;;;;;6214791;22;20022;-92
2022/07/26 19:56:41;;;;;;;0.93;0.20;;;16.90;99.90;;;;;;6227822;22;20015;-94
2022/07/26 19:59:53;;;;;;;1.77;0.43;;;17.00;99.90;;;;;;6228821;22;20066;-94
2022/07/26 20:03:18;;;;;;;1.17;0.50;;;16.90;99.90;;;;;;6251548;22;20020;-93
2022/07/26 20:08:19;;;;;;;1.77;0.50;;;16.80;99.90;;;;;;6306419;22;20027;-92
2022/07/26 20:10:50;;;;;;;1.20;0.20;;;16.80;99.90;;;;;;6282769;22;20015;-94
2022/07/26 20:13:32;;;;;;;0.60;0.40;;;16.80;99.90;;;;;;6255895;22;20015;-93
2022/07/26 20:16:25;;;;;;;0.68;0.30;;;16.80;99.90;;;;;;6285388;22;20015;-95
2022/07/26 20:19:07;;;;;;;1.52;0.30;;;16.70;99.90;;;;;;6287730;22;20022;-94
2022/07/26 20:26:47;;;;;;;0.10;0.10;;;16.70;99.90;;;;;;6309486;22;20019;-93
2022/07/26 20:29:34;;;;;;;;;;;;;;;;;;;;;
2022/07/26 20:32:04;;;;;;;2.17;0.57;;;16.70;99.90;;;;;;6282748;22;20015;-91
2022/07/26 20:34:38;;;;;;;1.00;0.15;;;16.60;99.90;;;;;;6256907;22;20376;-94
2022/07/26 20:37:07;;;;;;;2.65;0.30;;;16.60;99.90;;;;;;6257666;22;20341;-96
2022/07/26 20:39:34;;;;;;;1.75;0.15;;;16.60;99.90;;;;;;6256794;22;20016;-93
2022/07/26 20:42:04;;;;;;;1.23;0.20;;;16.60;99.90;;;;;;6256945;22;20042;-94
2022/07/26 20:45:14;;;;;;;;;;;;;;;;;;;;;
2022/07/26 20:48:05;;;;;;;1.42;0.40;;;16.50;99.90;;;;;;6280041;22;20090;-94
2022/07/26 20:50:31;;;;;;;1.65;0.28;;;16.50;99.90;;;;;;6256547;22;20028;-93
2022/07/26 20:53:00;;;;;;;1.55;0.40;;;16.50;99.90;;;;;;6256000;22;20015;-94
2022/07/26 20:59:08;;;;;;;0.57;0.20;;;16.50;99.90;;;;;;6261706;22;20019;-94
2022/07/26 21:02:11;;;;;;;1.27;0.30;;;16.40;99.90;;;;;;6255745;22;20097;-92
2022/07/26 21:05:12;;;;;;;1.25;0.30;;;16.40;99.90;;;;;;6256148;22;20048;-93
2022/07/26 21:07:41;;;;;;;0.55;0.22;;;16.40;99.90;;;;;;6212692;22;20041;-93
2022/07/26 21:10:09;;;;;;;0.90;0.40;;;16.40;99.90;;;;;;6256394;22;20019;-93
2022/07/26 21:12:35;;;;;;;1.00;0.20;;;16.40;99.90;;;;;;6256190;22;20057;-92
2022/07/26 21:15:35;;;;;;;1.52;0.40;;;16.30;99.90;;;;;;6255743;22;20026;-95
2022/07/26 21:18:52;;;;;;;1.48;0.40;;;16.20;99.90;;;;;;6280721;22;20015;-94
2022/07/26 21:22:01;;;;;;;;;;;;;;;;;;;;;
2022/07/26 21:25:51;;;;;;;0.88;0.30;;;16.20;99.90;;;;;;6308054;22;20014;-93
2022/07/26 21:28:17;;;;;;;0.65;0.30;;;16.10;99.90;;;;;;6123922;23;20109;-94
2022/07/26 21:41:04;;;;;;;0.82;0.20;;;15.90;99.90;;;;;;6283127;22;20077;-93
2022/07/26 21:43:30;;;;;;;0.95;0.32;;;15.90;99.90;;;;;;6256325;22;20019;-93
2022/07/26 21:45:56;;;;;;;1.67;0.32;;;15.90;99.90;;;;;;6255785;22;20094;-93
2022/07/26 21:48:22;;;;;;;1.58;0.30;;;15.90;99.90;;;;;;6255952;22;20092;-95
2022/07/26 21:50:48;;;;;;;0.55;0.30;;;15.90;99.90;;;;;;6255845;22;20015;-94
2022/07/26 21:59:40;;;;;;;1.17;0.40;;;15.90;99.90;;;;;;6219654;22;20026;-94
2022/07/26 22:02:13;;;;;;;3.28;0.40;;;15.90;99.90;;;;;;6255273;22;20356;-94
2022/07/26 22:44:38;;;;;;;1.88;0.60;;;15.40;99.90;;;;;;6275532;22;20023;-91
2022/07/26 22:50:35;;;;;;;1.63;0.40;;;15.40;99.90;;;;;;6171132;22;20020;-93
2022/07/26 22:53:23;;;;;;;2.15;0.45;;;15.40;99.90;;;;;;6250724;22;20350;-94
2022/07/26 22:55:49;;;;;;;1.13;0.63;;;15.30;99.90;;;;;;6223964;22;20461;-91
2022/07/26 22:58:15;;;;;;;;;;;15.40;99.90;;;;;;6251073;22;20062;-91
2022/07/26 23:08:27;;;;;;;0.57;0.30;;;15.40;99.90;;;;;;6275826;22;20043;-93
2022/07/26 23:10:52;;;;;;;1.00;0.60;;;15.40;99.90;;;;;;6249019;22;20020;-93
2022/07/26 23:13:18;;;;;;;2.92;0.55;;;15.30;99.90;;;;;;6249822;22;20011;-93
2022/07/26 23:15:44;;;;;;;1.50;0.40;;;15.40;99.90;;;;;;6249973;22;20047;-91
2022/07/26 23:18:09;;;;;;;1.65;0.50;;;15.40;99.90;;;;;;6250198;22;20353;-94
2022/07/26 23:20:35;;;;;;;1.67;0.50;;;15.30;99.90;;;;;;6250714;22;20023;-95
2022/07/26 23:23:20;;;;;;;1.98;0.40;;;15.30;99.90;;;;;;6251355;22;20095;-94
2022/07/26 23:25:45;;;;;;;1.20;0.40;;;15.30;99.90;;;;;;6250149;22;20091;-90
2022/07/26 23:28:11;;;;;;;1.75;0.20;;;15.30;99.90;;;;;;6250592;22;20055;-92
2022/07/26 23:30:37;;;;;;;2.73;0.50;;;15.30;99.90;;;;;;6250337;22;20012;-91
2022/07/26 23:33:02;;;;;;;1.38;0.43;;;15.30;99.90;;;;;;6250098;22;20695;-91
2022/07/26 23:35:28;;;;;;;1.77;0.50;;;15.40;99.90;;;;;;6250054;22;20015;-92
2022/07/26 23:37:54;;;;;;;0.82;0.40;;;15.40;99.90;;;;;;6250185;22;20020;-92
2022/07/26 23:40:20;;;;;;;1.63;0.50;;;15.40;99.90;;;;;;6252053;22;20016;-94
2022/07/26 23:42:46;;;;;;;0.47;0.20;;;15.40;99.90;;;;;;6259940;22;20019;-91
2022/07/26 23:45:12;;;;;;;;;;;15.40;99.90;;;;;;6263890;22;20011;-94
2022/07/26 23:47:38;;;;;;;1.00;0.40;;;15.40;99.90;;;;;;6252141;22;19953;-91
2022/07/26 23:50:04;;;;;;;3.42;0.47;;;15.40;99.90;;;;;;6251955;22;20020;-94
2022/07/26 23:52:30;;;;;;;0.38;0.20;;;15.40;99.90;;;;;;6251636;22;20016;-91
2022/07/26 23:54:56;;;;;;;1.70;0.40;;;15.50;99.90;;;;;;6252098;22;20082;-94
2022/07/26 23:57:22;;;;;;;0.65;0.25;;;15.50;99.90;;;;;;6251959;22;20026;-94
2022/07/26 23:59:47;;;;;;;1.58;0.45;;;15.50;99.90;;;;;;6251915;22;20038;-91
